createdAt,value
2016-07-06T00:00:39.858Z,88.82
2016-07-06T00:01:39.843Z,88.3
2016-07-06T00:02:39.818Z,88.54
2016-07-06T00:03:39.802Z,88.73
2016-07-06T00:04:39.808Z,88.25
2016-07-06T00:05:39.779Z,88.73
2016-07-06T00:06:39.782Z,88.15
2016-07-06T00:07:39.764Z,88.44
2016-07-06T00:08:39.755Z,88.82
2016-07-06T00:09:40.359Z,88.54
2016-07-06T00:10:40.340Z,88.44
2016-07-06T00:11:40.312Z,87.87
2016-07-06T00:12:40.324Z,88.54
2016-07-06T00:13:40.298Z,88.34
2016-07-06T00:14:39.669Z,87.96
2016-07-06T00:15:40.274Z,88.25
2016-07-06T00:16:40.264Z,88.25
2016-07-06T00:17:40.246Z,88.63
2016-07-06T00:18:39.620Z,88.25
2016-07-06T00:19:40.210Z,88.15
2016-07-06T00:20:40.202Z,88.34
2016-07-06T00:21:39.582Z,88.15
2016-07-06T00:22:39.565Z,88.25
2016-07-06T00:23:39.549Z,88.44
2016-07-06T00:24:39.525Z,88.34
2016-07-06T00:25:39.518Z,87.96
2016-07-06T00:26:40.121Z,88.44
2016-07-06T00:27:40.098Z,88.73
2016-07-06T00:28:39.482Z,88.73
2016-07-06T00:29:39.467Z,89.01
2016-07-06T00:30:40.070Z,88.82
2016-07-06T00:31:39.449Z,88.34
2016-07-06T00:32:40.054Z,88.82
2016-07-06T00:33:39.418Z,88.73
2016-07-06T00:34:40.008Z,88.73
2016-07-06T00:35:39.997Z,89.11
2016-07-06T00:36:39.980Z,88.78
2016-07-06T00:37:39.367Z,88.97
2016-07-06T00:38:39.351Z,89.25
2016-07-06T00:39:39.328Z,89.45
2016-07-06T00:40:39.949Z,89.06
2016-07-06T00:41:39.980Z,89.16
2016-07-06T00:42:39.302Z,89.16
2016-07-06T00:43:39.284Z,89.06
2016-07-06T00:44:39.273Z,89.45
2016-07-06T00:45:39.261Z,89.64
2016-07-06T00:46:39.251Z,89.92
2016-07-06T00:47:39.233Z,89.64
2016-07-06T00:48:39.218Z,89.83
2016-07-06T00:49:39.210Z,89.45
2016-07-06T00:50:39.187Z,89.45
2016-07-06T00:51:39.178Z,89.25
2016-07-06T00:52:39.163Z,90.11
2016-07-06T00:53:39.148Z,90.02
2016-07-06T00:54:39.147Z,90.11
2016-07-06T00:55:39.119Z,89.35
2016-07-06T00:56:39.112Z,90.02
2016-07-06T00:57:39.097Z,90.02
2016-07-06T00:58:39.085Z,90.4
2016-07-06T00:59:39.075Z,90.02
2016-07-06T01:00:39.060Z,90.11
2016-07-06T01:01:39.049Z,90.21
2016-07-06T01:02:39.034Z,90.31
2016-07-06T01:03:39.634Z,90.59
2016-07-06T01:04:39.007Z,90.21
2016-07-06T01:05:38.996Z,90.31
2016-07-06T01:06:39.594Z,90.5
2016-07-06T01:07:39.125Z,90.5
2016-07-06T01:08:39.688Z,90.5
2016-07-06T01:09:39.118Z,90.5
2016-07-06T01:10:38.984Z,91.07
2016-07-06T01:11:38.914Z,90.69
2016-07-06T01:12:38.901Z,90.69
2016-07-06T01:13:38.884Z,90.78
2016-07-06T01:14:38.874Z,90.78
2016-07-06T01:15:38.856Z,90.78
2016-07-06T01:16:38.831Z,90.88
2016-07-06T01:17:38.820Z,90.5
2016-07-06T01:18:38.805Z,90.88
2016-07-06T01:19:38.800Z,90.88
2016-07-06T01:20:38.792Z,91.07
2016-07-06T01:21:38.772Z,90.88
2016-07-06T01:22:39.361Z,90.97
2016-07-06T01:23:38.749Z,91.07
2016-07-06T01:24:39.349Z,91.07
2016-07-06T01:25:38.709Z,90.88
2016-07-06T01:26:38.709Z,91.64
2016-07-06T01:27:38.683Z,91.16
2016-07-06T01:28:38.682Z,91.55
2016-07-06T01:29:38.672Z,91.16
2016-07-06T01:30:39.268Z,91.64
2016-07-06T01:31:38.641Z,91.36
2016-07-06T01:32:38.619Z,91.36
2016-07-06T01:33:38.615Z,91.36
2016-07-06T01:34:38.600Z,91.21
2016-07-06T01:35:38.586Z,91.26
2016-07-06T01:36:38.568Z,91.41
2016-07-06T01:37:38.554Z,91.41
2016-07-06T01:38:38.550Z,92.21
2016-07-06T01:39:38.534Z,91.78
2016-07-06T01:40:39.132Z,92.17
2016-07-06T01:41:39.111Z,91.74
2016-07-06T01:42:38.494Z,91.88
2016-07-06T01:43:38.479Z,92.02
2016-07-06T01:44:38.465Z,92.12
2016-07-06T01:45:39.056Z,91.93
2016-07-06T01:46:38.439Z,92.02
2016-07-06T01:47:38.423Z,92.21
2016-07-06T01:48:38.417Z,91.88
2016-07-06T01:49:38.396Z,91.74
2016-07-06T01:50:38.383Z,91.74
2016-07-06T01:51:38.370Z,92.12
2016-07-06T01:52:38.354Z,91.93
2016-07-06T01:53:38.339Z,92.21
2016-07-06T01:54:38.330Z,91.64
2016-07-06T01:55:38.302Z,91.93
2016-07-06T01:56:38.291Z,91.55
2016-07-06T01:57:38.295Z,92.02
2016-07-06T01:58:38.273Z,91.83
2016-07-06T01:59:38.265Z,91.83
2016-07-06T02:00:38.250Z,91.74
2016-07-06T02:01:38.233Z,92.02
2016-07-06T02:02:38.833Z,91.64
2016-07-06T02:03:38.211Z,91.93
2016-07-06T02:04:38.194Z,91.83
2016-07-06T02:05:38.179Z,91.74
2016-07-06T02:06:38.167Z,91.93
2016-07-06T02:07:38.157Z,91.83
2016-07-06T02:08:38.139Z,92.21
2016-07-06T02:09:38.124Z,91.64
2016-07-06T02:10:38.722Z,92.02
2016-07-06T02:11:38.098Z,92.02
2016-07-06T02:12:38.071Z,92.02
2016-07-06T02:13:38.069Z,91.93
2016-07-06T02:14:38.056Z,91.74
2016-07-06T02:15:38.647Z,92.02
2016-07-06T02:16:38.026Z,91.83
2016-07-06T02:17:38.017Z,91.93
2016-07-06T02:18:38.005Z,92.02
2016-07-06T02:19:38.606Z,91.93
2016-07-06T02:20:37.978Z,91.93
2016-07-06T02:21:38.576Z,91.74
2016-07-06T02:22:38.615Z,92.21
2016-07-06T02:23:38.579Z,92.02
2016-07-06T02:24:37.922Z,91.83
2016-07-06T02:25:37.912Z,92.12
2016-07-06T02:26:37.894Z,91.74
2016-07-06T02:27:38.495Z,91.83
2016-07-06T02:28:37.868Z,91.55
2016-07-06T02:29:37.855Z,91.74
2016-07-06T02:30:37.841Z,91.74
2016-07-06T02:31:38.439Z,92.31
2016-07-06T02:32:38.429Z,92.02
2016-07-06T02:33:37.798Z,92.21
2016-07-06T02:34:37.776Z,92.6
2016-07-06T02:35:38.376Z,92.41
2016-07-06T02:36:37.759Z,91.93
2016-07-06T02:37:38.352Z,91.93
2016-07-06T02:38:37.723Z,91.74
2016-07-06T02:39:37.723Z,92.02
2016-07-06T02:40:37.708Z,91.83
2016-07-06T02:41:37.691Z,91.83
2016-07-06T02:42:37.682Z,91.93
2016-07-06T02:43:37.667Z,91.93
2016-07-06T02:44:37.656Z,91.93
2016-07-06T02:45:37.624Z,92.12
2016-07-06T02:46:37.612Z,91.83
2016-07-06T02:47:38.209Z,92.21
2016-07-06T02:48:38.208Z,92.21
2016-07-06T02:49:38.183Z,92.12
2016-07-06T02:50:37.556Z,92.5
2016-07-06T02:51:37.548Z,92.02
2016-07-06T02:52:37.545Z,92.21
2016-07-06T02:53:38.143Z,92.31
2016-07-06T02:54:37.517Z,91.93
2016-07-06T02:55:37.498Z,92.5
2016-07-06T02:56:38.109Z,92.5
2016-07-06T02:57:37.478Z,92.5
2016-07-06T02:58:37.505Z,92.41
2016-07-06T02:59:37.450Z,92.5
2016-07-06T03:00:37.433Z,92.41
2016-07-06T03:01:37.421Z,92.12
2016-07-06T03:02:38.023Z,92.12
2016-07-06T03:03:37.395Z,92.12
2016-07-06T03:04:37.996Z,92.21
2016-07-06T03:05:37.368Z,92.31
2016-07-06T03:06:37.354Z,92.41
2016-07-06T03:07:37.339Z,92.41
2016-07-06T03:08:37.326Z,91.83
2016-07-06T03:09:37.312Z,92.21
2016-07-06T03:10:37.298Z,91.74
2016-07-06T03:11:37.276Z,91.83
2016-07-06T03:12:37.890Z,91.83
2016-07-06T03:13:37.247Z,91.64
2016-07-06T03:14:37.232Z,91.64
2016-07-06T03:15:37.225Z,91.97
2016-07-06T03:16:37.211Z,91.74
2016-07-06T03:17:37.193Z,91.55
2016-07-06T03:18:37.182Z,91.69
2016-07-06T03:19:37.170Z,91.55
2016-07-06T03:20:37.159Z,91.83
2016-07-06T03:21:37.764Z,92.31
2016-07-06T03:22:37.738Z,91.5
2016-07-06T03:23:37.112Z,91.74
2016-07-06T03:24:37.112Z,91.26
2016-07-06T03:25:37.084Z,91.16
2016-07-06T03:26:37.697Z,91.55
2016-07-06T03:27:37.081Z,91.74
2016-07-06T03:28:37.680Z,91.69
2016-07-06T03:29:37.042Z,91.07
2016-07-06T03:30:37.048Z,91.21
2016-07-06T03:31:37.019Z,91.26
2016-07-06T03:32:37.008Z,91.3
2016-07-06T03:33:37.612Z,91.4
2016-07-06T03:34:36.981Z,91.5
2016-07-06T03:35:36.965Z,91.4
2016-07-06T03:36:36.954Z,91.5
2016-07-06T03:37:36.923Z,91.45
2016-07-06T03:38:36.923Z,91.5
2016-07-06T03:39:36.910Z,91.36
2016-07-06T03:40:36.892Z,91.26
2016-07-06T03:41:37.495Z,91.45
2016-07-06T03:42:36.874Z,91.5
2016-07-06T03:43:37.467Z,91.3
2016-07-06T03:44:37.456Z,91.55
2016-07-06T03:45:36.828Z,91.5
2016-07-06T03:46:36.823Z,92.26
2016-07-06T03:47:36.791Z,91.21
2016-07-06T03:48:36.781Z,91.11
2016-07-06T03:49:36.769Z,91.59
2016-07-06T03:50:36.754Z,91.59
2016-07-06T03:51:36.741Z,91.5
2016-07-06T03:52:36.725Z,91.5
2016-07-06T03:53:36.729Z,91.4
2016-07-06T03:54:37.321Z,91.11
2016-07-06T03:55:36.694Z,91.21
2016-07-06T03:56:36.681Z,91.5
2016-07-06T03:57:36.666Z,91.21
2016-07-06T03:58:36.645Z,91.59
2016-07-06T03:59:37.261Z,91.3
2016-07-06T04:00:37.240Z,91.3
2016-07-06T04:01:36.607Z,90.92
2016-07-06T04:02:37.216Z,91.3
2016-07-06T04:03:36.584Z,91.11
2016-07-06T04:04:36.573Z,91.21
2016-07-06T04:05:36.562Z,91.5
2016-07-06T04:06:36.548Z,91.21
2016-07-06T04:07:36.534Z,91.5
2016-07-06T04:08:36.508Z,91.3
2016-07-06T04:09:37.118Z,91.3
2016-07-06T04:10:37.110Z,91.3
2016-07-06T04:11:36.479Z,91.3
2016-07-06T04:12:36.464Z,91.02
2016-07-06T04:13:36.449Z,90.92
2016-07-06T04:14:36.437Z,91.11
2016-07-06T04:15:36.418Z,91.21
2016-07-06T04:16:36.606Z,90.92
2016-07-06T04:17:36.390Z,90.83
2016-07-06T04:18:36.998Z,90.92
2016-07-06T04:19:36.371Z,90.54
2016-07-06T04:20:36.359Z,91.4
2016-07-06T04:21:36.951Z,90.73
2016-07-06T04:22:36.334Z,90.73
2016-07-06T04:23:36.318Z,90.73
2016-07-06T04:24:36.308Z,90.73
2016-07-06T04:25:36.288Z,90.78
2016-07-06T04:26:36.278Z,90.78
2016-07-06T04:27:36.266Z,90.3
2016-07-06T04:28:36.242Z,90.68
2016-07-06T04:29:36.844Z,90.68
2016-07-06T04:30:36.221Z,90.39
2016-07-06T04:31:36.208Z,90.78
2016-07-06T04:32:36.196Z,90.11
2016-07-06T04:33:36.185Z,90.11
2016-07-06T04:34:36.171Z,90.11
2016-07-06T04:35:36.160Z,89.53
2016-07-06T04:36:36.146Z,90.2
2016-07-06T04:37:36.750Z,90.3
2016-07-06T04:38:36.736Z,90.2
2016-07-06T04:39:36.113Z,90.49
2016-07-06T04:40:36.091Z,90.39
2016-07-06T04:41:36.075Z,90.2
2016-07-06T04:42:36.071Z,90.59
2016-07-06T04:43:36.045Z,90.01
2016-07-06T04:44:36.041Z,90.49
2016-07-06T04:45:36.026Z,90.2
2016-07-06T04:46:36.008Z,90.11
2016-07-06T04:47:36.004Z,90.39
2016-07-06T04:48:36.602Z,90.78
2016-07-06T04:49:35.981Z,90.2
2016-07-06T04:50:36.566Z,90.3
2016-07-06T04:51:36.584Z,90.3
2016-07-06T04:52:35.948Z,90.3
2016-07-06T04:53:35.928Z,90.2
2016-07-06T04:54:35.914Z,89.92
2016-07-06T04:55:35.892Z,90.39
2016-07-06T04:56:35.885Z,90.3
2016-07-06T04:57:35.875Z,90.01
2016-07-06T04:58:35.892Z,89.73
2016-07-06T04:59:35.840Z,89.44
2016-07-06T05:00:35.835Z,89.53
2016-07-06T05:01:35.821Z,89.06
2016-07-06T05:02:35.807Z,89.15
2016-07-06T05:03:35.792Z,89.63
2016-07-06T05:04:35.783Z,88.87
2016-07-06T05:05:36.390Z,89.34
2016-07-06T05:06:35.767Z,89.06
2016-07-06T05:07:35.742Z,88.77
2016-07-06T05:08:35.725Z,88.58
2016-07-06T05:09:36.335Z,88.77
2016-07-06T05:10:35.710Z,88.87
2016-07-06T05:11:35.687Z,88.62
2016-07-06T05:12:35.676Z,88.77
2016-07-06T05:13:35.669Z,88.96
2016-07-06T05:14:35.709Z,89.39
2016-07-06T05:15:36.259Z,88.91
2016-07-06T05:16:35.631Z,88.53
2016-07-06T05:17:35.618Z,88.53
2016-07-06T05:18:35.608Z,88.81
2016-07-06T05:19:35.598Z,88.91
2016-07-06T05:20:35.582Z,88.72
2016-07-06T05:21:35.571Z,88.81
2016-07-06T05:22:35.559Z,89.01
2016-07-06T05:23:35.545Z,88.34
2016-07-06T05:24:35.536Z,88.43
2016-07-06T05:25:35.517Z,88.53
2016-07-06T05:26:36.130Z,88.72
2016-07-06T05:27:35.496Z,88.34
2016-07-06T05:28:36.104Z,88.72
2016-07-06T05:29:35.468Z,87.95
2016-07-06T05:30:35.455Z,88.15
2016-07-06T05:31:36.061Z,88.53
2016-07-06T05:32:35.434Z,88.05
2016-07-06T05:33:35.419Z,87.76
2016-07-06T05:34:35.406Z,87.66
2016-07-06T05:35:35.396Z,87.38
2016-07-06T05:36:35.381Z,87.19
2016-07-06T05:37:35.369Z,87.38
2016-07-06T05:38:35.357Z,87.57
2016-07-06T05:39:35.345Z,87.09
2016-07-06T05:40:35.335Z,87.66
2016-07-06T05:41:35.321Z,87.57
2016-07-06T05:42:35.306Z,87.66
2016-07-06T05:43:35.294Z,87.86
2016-07-06T05:44:35.286Z,87.38
2016-07-06T05:45:35.886Z,86.9
2016-07-06T05:46:35.271Z,87
2016-07-06T05:47:35.243Z,87.19
2016-07-06T05:48:35.245Z,87.09
2016-07-06T05:49:35.225Z,87.19
2016-07-06T05:50:35.215Z,86.8
2016-07-06T05:51:35.200Z,86.23
2016-07-06T05:52:35.188Z,86.43
2016-07-06T05:53:35.174Z,86.8
2016-07-06T05:54:35.159Z,86.9
2016-07-06T05:55:35.151Z,86.9
2016-07-06T05:56:35.137Z,86.8
2016-07-06T05:57:35.124Z,86.52
2016-07-06T05:58:35.721Z,86.08
2016-07-06T05:59:35.093Z,87
2016-07-06T06:00:35.090Z,86.43
2016-07-06T06:01:35.067Z,86.94
2016-07-06T06:02:35.061Z,86.04
2016-07-06T06:03:35.043Z,86.08
2016-07-06T06:04:35.040Z,85.89
2016-07-06T06:05:35.028Z,85.94
2016-07-06T06:06:35.626Z,86.08
2016-07-06T06:07:35.620Z,86.08
2016-07-06T06:08:34.991Z,86.08
2016-07-06T06:09:34.978Z,85.71
2016-07-06T06:10:34.975Z,85.03
2016-07-06T06:11:34.952Z,85.51
2016-07-06T06:12:34.942Z,85.32
2016-07-06T06:13:34.930Z,85.03
2016-07-06T06:14:34.968Z,85.13
2016-07-06T06:15:34.897Z,85.71
2016-07-06T06:16:35.096Z,85.71
2016-07-06T06:17:34.883Z,85.22
2016-07-06T06:18:35.494Z,84.36
2016-07-06T06:19:34.861Z,85.41
2016-07-06T06:20:34.851Z,84.17
2016-07-06T06:21:34.844Z,84.12
2016-07-06T06:22:34.817Z,83.98
2016-07-06T06:23:34.812Z,83.22
2016-07-06T06:24:34.796Z,83.22
2016-07-06T06:25:34.786Z,83.45
2016-07-06T06:26:35.389Z,82.01
2016-07-06T06:27:35.377Z,82.78
2016-07-06T06:28:35.367Z,82.97
2016-07-06T06:29:34.749Z,81.63
2016-07-06T06:30:34.728Z,81.54
2016-07-06T06:31:34.714Z,81.92
2016-07-06T06:32:34.698Z,81.44
2016-07-06T06:33:34.694Z,81.29
2016-07-06T06:34:35.287Z,81.77
2016-07-06T06:35:34.678Z,82.43
2016-07-06T06:36:34.659Z,81.48
2016-07-06T06:37:35.259Z,81.2
2016-07-06T06:38:34.635Z,81.48
2016-07-06T06:39:34.619Z,80.9
2016-07-06T06:40:35.227Z,80.81
2016-07-06T06:41:35.211Z,81.1
2016-07-06T06:42:34.595Z,80.62
2016-07-06T06:43:34.579Z,80.9
2016-07-06T06:44:34.571Z,79.75
2016-07-06T06:45:34.555Z,80.1
2016-07-06T06:46:34.545Z,80.19
2016-07-06T06:47:34.536Z,80.24
2016-07-06T06:48:34.522Z,80
2016-07-06T06:49:34.502Z,80.48
2016-07-06T06:50:34.499Z,80.48
2016-07-06T06:51:34.481Z,80
2016-07-06T06:52:34.477Z,79.81
2016-07-06T06:53:35.085Z,80
2016-07-06T06:54:34.458Z,80.67
2016-07-06T06:55:34.452Z,79.91
2016-07-06T06:56:35.049Z,80.77
2016-07-06T06:57:34.423Z,79.72
2016-07-06T06:58:34.410Z,78.03
2016-07-06T06:59:34.402Z,77.11
2016-07-06T07:00:34.379Z,76
2016-07-06T07:01:34.991Z,75.81
2016-07-06T07:02:34.358Z,76.39
2016-07-06T07:03:34.357Z,76.86
2016-07-06T07:04:34.345Z,75.18
2016-07-06T07:05:34.327Z,74.02
2016-07-06T07:06:34.399Z,73.58
2016-07-06T07:07:34.925Z,73.65
2016-07-06T07:08:34.307Z,73.97
2016-07-06T07:09:34.293Z,74.44
2016-07-06T07:10:34.280Z,74.51
2016-07-06T07:11:34.256Z,74.31
2016-07-06T07:12:34.253Z,75.18
2016-07-06T07:13:34.242Z,76.67
2016-07-06T07:14:34.230Z,75.43
2016-07-06T07:15:34.224Z,75.23
2016-07-06T07:16:34.208Z,75.23
2016-07-06T07:17:34.819Z,76.48
2016-07-06T07:18:34.181Z,76.29
2016-07-06T07:19:34.182Z,75.71
2016-07-06T07:20:34.171Z,77.25
2016-07-06T07:21:34.163Z,75.9
2016-07-06T07:22:34.780Z,76.39
2016-07-06T07:23:34.146Z,76.1
2016-07-06T07:24:34.748Z,77.11
2016-07-06T07:25:34.121Z,77.78
2016-07-06T07:26:34.113Z,75.68
2016-07-06T07:27:34.724Z,75.68
2016-07-06T07:28:34.098Z,75.2
2016-07-06T07:29:34.086Z,75.96
2016-07-06T07:30:34.693Z,75.87
2016-07-06T07:31:34.070Z,75.23
2016-07-06T07:32:34.063Z,75.33
2016-07-06T07:33:34.662Z,74.41
2016-07-06T07:34:34.041Z,74.93
2016-07-06T07:35:34.086Z,74.73
2016-07-06T07:36:34.636Z,73.55
2016-07-06T07:37:34.005Z,71.89
2016-07-06T07:38:33.994Z,72.18
2016-07-06T07:39:34.611Z,73.3
2016-07-06T07:40:34.602Z,72.88
2016-07-06T07:41:33.977Z,73.45
2016-07-06T07:42:34.578Z,74.98
2016-07-06T07:43:33.960Z,73.93
2016-07-06T07:44:33.951Z,72.88
2016-07-06T07:45:33.969Z,73.83
2016-07-06T07:46:33.933Z,73.16
2016-07-06T07:47:34.541Z,73.32
2016-07-06T07:48:34.532Z,71.63
2016-07-06T07:49:33.908Z,71.47
2016-07-06T07:50:34.518Z,72.28
2016-07-06T07:51:34.507Z,72.75
2016-07-06T07:52:33.882Z,71.89
2016-07-06T07:53:33.870Z,69.91
2016-07-06T07:54:33.867Z,68.51
2016-07-06T07:55:33.861Z,67.86
2016-07-06T07:56:33.853Z,67.38
2016-07-06T07:57:33.844Z,66.17
2016-07-06T07:58:33.831Z,66.88
2016-07-06T07:59:33.827Z,62.67
2016-07-06T08:00:33.820Z,63.47
2016-07-06T08:01:33.818Z,62.63
2016-07-06T08:02:33.810Z,60.77
2016-07-06T08:03:33.804Z,58.9
2016-07-06T08:04:33.800Z,61.35
2016-07-06T08:05:33.791Z,61.03
2016-07-06T08:06:33.787Z,61.41
2016-07-06T08:07:33.782Z,61.07
2016-07-06T08:08:33.778Z,61.61
2016-07-06T08:09:33.772Z,60.87
2016-07-06T08:10:33.766Z,63.18
2016-07-06T08:11:34.374Z,62.16
2016-07-06T08:12:33.747Z,60.2
2016-07-06T08:13:33.739Z,59.3
2016-07-06T08:14:33.732Z,55.49
2016-07-06T08:15:33.733Z,54.17
2016-07-06T08:16:33.925Z,53.81
2016-07-06T08:17:34.333Z,51.15
2016-07-06T08:18:33.726Z,51.18
2016-07-06T08:19:33.704Z,47.26
2016-07-06T08:20:33.703Z,47.55
2016-07-06T08:21:34.309Z,49.61
2016-07-06T08:22:33.719Z,52.41
2016-07-06T08:23:33.696Z,54.65
2016-07-06T08:24:33.689Z,54.6
2016-07-06T08:25:33.684Z,52.91
2016-07-06T08:26:33.686Z,52.58
2016-07-06T08:27:33.680Z,53.61
2016-07-06T08:28:33.677Z,56.07
2016-07-06T08:29:33.676Z,56.69
2016-07-06T08:30:33.670Z,53.83
2016-07-06T08:31:33.664Z,52.62
2016-07-06T08:32:33.657Z,51.87
2016-07-06T08:33:34.255Z,50.26
2016-07-06T08:34:33.639Z,49.12
2016-07-06T08:35:33.633Z,47.21
2016-07-06T08:36:33.644Z,46.84
2016-07-06T08:37:33.638Z,46.29
2016-07-06T08:38:33.627Z,46.22
2016-07-06T08:39:33.635Z,45.07
2016-07-06T08:40:33.627Z,45.54
2016-07-06T08:41:33.621Z,45.3
2016-07-06T08:42:33.623Z,45.88
2016-07-06T08:43:33.617Z,48.57
2016-07-06T08:44:33.617Z,51.39
2016-07-06T08:45:33.618Z,51.37
2016-07-06T08:46:33.603Z,49.63
2016-07-06T08:47:33.604Z,49.1
2016-07-06T08:48:33.611Z,48.18
2016-07-06T08:49:33.609Z,43.17
2016-07-06T08:50:34.218Z,44.06
2016-07-06T08:51:33.602Z,43.38
2016-07-06T08:52:33.591Z,43.87
2016-07-06T08:53:33.591Z,43.89
2016-07-06T08:54:33.591Z,43.89
2016-07-06T08:55:33.591Z,44.76
2016-07-06T08:56:33.588Z,45.51
2016-07-06T08:57:33.583Z,46.36
2016-07-06T08:58:33.583Z,49.9
2016-07-06T08:59:33.581Z,51.1
2016-07-06T09:00:33.576Z,52.69
2016-07-06T09:01:33.566Z,53.51
2016-07-06T09:02:33.568Z,56.18
2016-07-06T09:03:33.560Z,57.12
2016-07-06T09:04:33.557Z,58.72
2016-07-06T09:05:34.168Z,59.69
2016-07-06T09:06:33.545Z,57.4
2016-07-06T09:07:33.675Z,55.29
2016-07-06T09:08:34.154Z,55.6
2016-07-06T09:09:33.534Z,55.51
2016-07-06T09:10:33.528Z,57.85
2016-07-06T09:11:33.526Z,57.46
2016-07-06T09:12:34.136Z,53.56
2016-07-06T09:13:33.520Z,50.31
2016-07-06T09:14:33.514Z,50.43
2016-07-06T09:15:33.509Z,49.58
2016-07-06T09:16:34.126Z,48.59
2016-07-06T09:17:33.503Z,49.55
2016-07-06T09:18:33.501Z,50.71
2016-07-06T09:19:33.501Z,51.82
2016-07-06T09:20:33.498Z,53.99
2016-07-06T09:21:33.491Z,55.99
2016-07-06T09:22:34.107Z,57.24
2016-07-06T09:23:33.492Z,59.11
2016-07-06T09:24:33.488Z,58.27
2016-07-06T09:25:33.484Z,59.11
2016-07-06T09:26:34.088Z,60.42
2016-07-06T09:27:33.474Z,61
2016-07-06T09:28:33.469Z,60.97
2016-07-06T09:29:33.464Z,60.78
2016-07-06T09:30:33.458Z,58.34
2016-07-06T09:31:33.449Z,54.28
2016-07-06T09:32:33.448Z,52.98
2016-07-06T09:33:33.441Z,51.01
2016-07-06T09:34:33.428Z,49.77
2016-07-06T09:35:33.431Z,49.24
2016-07-06T09:36:34.042Z,47.41
2016-07-06T09:37:33.422Z,47.33
2016-07-06T09:38:34.028Z,45.51
2016-07-06T09:39:33.413Z,46.41
2016-07-06T09:40:33.419Z,48.39
2016-07-06T09:41:33.413Z,48.95
2016-07-06T09:42:33.413Z,49.8
2016-07-06T09:43:33.410Z,50.16
2016-07-06T09:44:33.408Z,50.79
2016-07-06T09:45:33.399Z,50.86
2016-07-06T09:46:33.412Z,51.22
2016-07-06T09:47:33.398Z,51.34
2016-07-06T09:48:33.385Z,50.01
2016-07-06T09:49:33.393Z,48.49
2016-07-06T09:50:34.006Z,49.77
2016-07-06T09:51:33.387Z,49.68
2016-07-06T09:52:33.382Z,47.09
2016-07-06T09:53:33.380Z,47.99
2016-07-06T09:54:33.992Z,42.3
2016-07-06T09:55:33.379Z,42.4
2016-07-06T09:56:33.368Z,42.03
2016-07-06T09:57:33.375Z,44.04
2016-07-06T09:58:33.372Z,41.35
2016-07-06T09:59:33.362Z,43.41
2016-07-06T10:00:33.376Z,42.44
2016-07-06T10:01:33.979Z,43.31
2016-07-06T10:02:33.977Z,41.76
2016-07-06T10:03:33.374Z,40.99
2016-07-06T10:04:33.985Z,42.14
2016-07-06T10:05:33.376Z,41.37
2016-07-06T10:06:33.988Z,43.21
2016-07-06T10:07:33.376Z,43.41
2016-07-06T10:08:33.371Z,43.87
2016-07-06T10:09:33.380Z,44.31
2016-07-06T10:10:33.985Z,45.2
2016-07-06T10:11:33.372Z,42
2016-07-06T10:12:33.995Z,41.83
2016-07-06T10:13:33.381Z,40.96
2016-07-06T10:14:33.385Z,43.19
2016-07-06T10:15:33.991Z,41.95
2016-07-06T10:16:33.589Z,42.57
2016-07-06T10:17:34.004Z,40.83
2016-07-06T10:18:33.385Z,42.22
2016-07-06T10:19:33.388Z,44.21
2016-07-06T10:20:34.004Z,44.57
2016-07-06T10:21:33.390Z,43.44
2016-07-06T10:22:34.002Z,43.46
2016-07-06T10:23:33.394Z,40.75
2016-07-06T10:24:33.389Z,41.04
2016-07-06T10:25:34.005Z,43.85
2016-07-06T10:26:33.394Z,42.41
2016-07-06T10:27:34.007Z,41.7
2016-07-06T10:28:33.391Z,42.47
2016-07-06T10:29:34.003Z,43.23
2016-07-06T10:30:33.396Z,45.5
2016-07-06T10:31:33.399Z,45.96
2016-07-06T10:32:34.009Z,46.44
2016-07-06T10:33:34.009Z,48.44
2016-07-06T10:34:33.400Z,49.48
2016-07-06T10:35:34.016Z,50.45
2016-07-06T10:36:33.391Z,51
2016-07-06T10:37:34.007Z,50.16
2016-07-06T10:38:33.396Z,50.52
2016-07-06T10:39:33.392Z,47.75
2016-07-06T10:40:33.402Z,45.38
2016-07-06T10:41:34.000Z,44.63
2016-07-06T10:42:33.383Z,44.17
2016-07-06T10:43:33.999Z,46.61
2016-07-06T10:44:33.385Z,45.1
2016-07-06T10:45:33.392Z,45.81
2016-07-06T10:46:33.382Z,43.75
2016-07-06T10:47:33.991Z,43.63
2016-07-06T10:48:33.382Z,43.49
2016-07-06T10:49:33.991Z,45.59
2016-07-06T10:50:33.988Z,45.59
2016-07-06T10:51:33.371Z,46.73
2016-07-06T10:52:33.373Z,47.19
2016-07-06T10:53:33.369Z,46.61
2016-07-06T10:54:33.368Z,46.33
2016-07-06T10:55:33.980Z,46.33
2016-07-06T10:56:33.978Z,46.95
2016-07-06T10:57:33.364Z,44.96
2016-07-06T10:58:33.358Z,43.44
2016-07-06T10:59:33.973Z,42.08
2016-07-06T11:00:33.358Z,43.34
2016-07-06T11:01:33.969Z,44.04
2016-07-06T11:02:33.969Z,45.81
2016-07-06T11:03:33.969Z,43.31
2016-07-06T11:04:33.355Z,43.19
2016-07-06T11:05:33.354Z,42
2016-07-06T11:06:33.351Z,43.05
2016-07-06T11:07:33.354Z,44.21
2016-07-06T11:08:34.017Z,46.2
2016-07-06T11:09:33.350Z,47.24
2016-07-06T11:10:33.345Z,48.95
2016-07-06T11:11:33.344Z,48.44
2016-07-06T11:12:33.344Z,48.54
2016-07-06T11:13:33.348Z,48.44
2016-07-06T11:14:33.389Z,50.47
2016-07-06T11:15:33.338Z,48.06
2016-07-06T11:16:33.335Z,46.54
2016-07-06T11:17:33.331Z,46.75
2016-07-06T11:18:33.345Z,46.1
2016-07-06T11:19:33.946Z,45.74
2016-07-06T11:20:33.941Z,44.79
2016-07-06T11:21:33.989Z,44.6
2016-07-06T11:22:33.327Z,44.17
2016-07-06T11:23:33.938Z,43.4
2016-07-06T11:24:33.326Z,45.62
2016-07-06T11:25:33.315Z,45.64
2016-07-06T11:26:33.320Z,44.77
2016-07-06T11:27:33.315Z,44.77
2016-07-06T11:28:33.314Z,44.98
2016-07-06T11:29:33.318Z,43.54
2016-07-06T11:30:33.311Z,43.75
2016-07-06T11:31:33.310Z,45.86
2016-07-06T11:32:33.301Z,43.95
2016-07-06T11:33:33.302Z,43.65
2016-07-06T11:34:33.297Z,44.72
2016-07-06T11:35:33.305Z,42.22
2016-07-06T11:36:33.308Z,44.62
2016-07-06T11:37:33.295Z,43.65
2016-07-06T11:38:33.290Z,45.81
2016-07-06T11:39:33.301Z,45.32
2016-07-06T11:40:33.298Z,43.68
2016-07-06T11:41:33.296Z,44.81
2016-07-06T11:42:33.297Z,44.53
2016-07-06T11:43:33.299Z,43.07
2016-07-06T11:44:33.289Z,43.63
2016-07-06T11:45:33.301Z,44.19
2016-07-06T11:46:33.286Z,45.42
2016-07-06T11:47:33.903Z,46.78
2016-07-06T11:48:33.284Z,46.54
2016-07-06T11:49:33.292Z,48.47
2016-07-06T11:50:33.275Z,48.76
2016-07-06T11:51:33.271Z,49.24
2016-07-06T11:52:33.275Z,47.81
2016-07-06T11:53:33.269Z,47.33
2016-07-06T11:54:33.272Z,47.16
2016-07-06T11:55:33.273Z,43.44
2016-07-06T11:56:33.267Z,47.09
2016-07-06T11:57:33.255Z,44.65
2016-07-06T11:58:33.255Z,45.72
2016-07-06T11:59:33.303Z,47.33
2016-07-06T12:00:33.865Z,48.01
2016-07-06T12:01:33.247Z,48.01
2016-07-06T12:02:33.244Z,49.17
2016-07-06T12:03:33.859Z,48.57
2016-07-06T12:04:33.246Z,49.15
2016-07-06T12:05:33.859Z,49.9
2016-07-06T12:06:33.854Z,49.41
2016-07-06T12:07:33.229Z,49.58
2016-07-06T12:08:33.866Z,49.39
2016-07-06T12:09:33.236Z,50.52
2016-07-06T12:10:33.898Z,51.87
2016-07-06T12:11:33.221Z,51.58
2016-07-06T12:12:33.827Z,52.04
2016-07-06T12:13:33.821Z,52.04
2016-07-06T12:14:33.192Z,54.06
2016-07-06T12:15:33.260Z,53.77
2016-07-06T12:16:33.999Z,52.23
2016-07-06T12:17:33.798Z,53.48
2016-07-06T12:18:33.798Z,53.96
2016-07-06T12:19:33.164Z,56.21
2016-07-06T12:20:33.169Z,51.61
2016-07-06T12:21:33.168Z,49.8
2016-07-06T12:22:33.154Z,49.53
2016-07-06T12:23:33.784Z,46.95
2016-07-06T12:24:33.767Z,45.64
2016-07-06T12:25:33.747Z,45.76
2016-07-06T12:26:33.753Z,44.53
2016-07-06T12:27:33.751Z,43.68
2016-07-06T12:28:33.134Z,44.54
2016-07-06T12:29:33.115Z,41.95
2016-07-06T12:30:33.167Z,42.07
2016-07-06T12:31:33.725Z,43.12
2016-07-06T12:32:33.117Z,42.32
2016-07-06T12:33:33.117Z,43.27
2016-07-06T12:34:33.116Z,41.89
2016-07-06T12:35:33.111Z,45.45
2016-07-06T12:36:33.098Z,45.72
2016-07-06T12:37:33.107Z,46.58
2016-07-06T12:38:33.109Z,48.11
2016-07-06T12:39:33.096Z,48.66
2016-07-06T12:40:33.109Z,48.28
2016-07-06T12:41:33.114Z,49.24
2016-07-06T12:42:33.091Z,49.8
2016-07-06T12:43:33.091Z,50.96
2016-07-06T12:44:33.091Z,51.7
2016-07-06T12:45:33.081Z,51.61
2016-07-06T12:46:33.083Z,51.03
2016-07-06T12:47:33.075Z,51.51
2016-07-06T12:48:33.052Z,53.41
2016-07-06T12:49:33.044Z,52.45
2016-07-06T12:50:33.052Z,52.73
2016-07-06T12:51:33.039Z,53.51
2016-07-06T12:52:33.056Z,52.83
2016-07-06T12:53:33.034Z,51.94
2016-07-06T12:54:33.026Z,55.12
2016-07-06T12:55:33.639Z,55.02
2016-07-06T12:56:33.017Z,55.41